createdAt,value
2019-06-26T00:01:57.184Z,26.46
2019-06-26T00:04:24.712Z,26.42
2019-06-26T00:06:52.188Z,26.42
2019-06-26T00:09:19.819Z,26.43
2019-06-26T00:11:47.276Z,26.42
2019-06-26T00:14:14.817Z,26.39
2019-06-26T00:16:42.264Z,26.32
2019-06-26T00:19:10.069Z,26.29
2019-06-26T00:21:37.490Z,26.30
2019-06-26T00:24:04.932Z,26.29
2019-06-26T00:26:32.382Z,26.26
2019-06-26T00:28:59.790Z,26.23
2019-06-26T00:31:27.217Z,26.17
2019-06-26T00:33:54.789Z,26.12
2019-06-26T00:36:22.267Z,26.08
2019-06-26T00:38:49.877Z,26.07
2019-06-26T00:41:17.284Z,26.04
2019-06-26T00:43:46.263Z,26.02
2019-06-26T00:46:13.709Z,26.00
2019-06-26T00:48:41.460Z,25.96
2019-06-26T00:51:08.891Z,25.85
2019-06-26T00:53:36.377Z,25.78
2019-06-26T00:56:03.904Z,25.77
2019-06-26T00:58:31.513Z,25.76
2019-06-26T01:00:58.996Z,25.73
2019-06-26T01:03:26.705Z,25.58
2019-06-26T01:05:54.145Z,25.60
2019-06-26T01:08:21.604Z,25.59
2019-06-26T01:10:49.034Z,25.61
2019-06-26T01:13:16.461Z,25.60
2019-06-26T01:15:43.913Z,25.59
2019-06-26T01:18:11.600Z,25.62
2019-06-26T01:20:39.080Z,25.63
2019-06-26T01:23:06.521Z,25.61
2019-06-26T01:25:33.938Z,25.56
2019-06-26T01:28:01.418Z,25.51
2019-06-26T01:30:28.867Z,25.45
2019-06-26T01:32:56.621Z,25.33
2019-06-26T01:35:24.069Z,25.30
2019-06-26T01:37:51.502Z,25.16
2019-06-26T01:40:19.335Z,25.12
2019-06-26T01:42:46.845Z,25.13
2019-06-26T01:45:14.431Z,25.16
2019-06-26T01:47:41.967Z,25.20
2019-06-26T01:50:09.537Z,25.22
2019-06-26T01:52:37.212Z,25.09
2019-06-26T01:55:06.213Z,24.92
2019-06-26T01:57:33.644Z,24.84
2019-06-26T02:00:01.055Z,24.83
2019-06-26T02:02:28.493Z,24.84
2019-06-26T02:04:55.979Z,24.83
2019-06-26T02:07:22.926Z,24.87
2019-06-26T02:09:49.944Z,24.90
2019-06-26T02:12:17.368Z,24.93
2019-06-26T02:14:44.813Z,24.89
2019-06-26T02:17:12.349Z,24.89
2019-06-26T02:19:39.764Z,24.91
2019-06-26T02:22:07.947Z,24.94
2019-06-26T02:24:35.395Z,24.91
2019-06-26T02:27:03.207Z,24.84
2019-06-26T02:29:30.732Z,24.80
2019-06-26T02:31:58.198Z,24.80
2019-06-26T02:34:25.611Z,24.79
2019-06-26T02:36:53.160Z,24.78
2019-06-26T02:39:20.581Z,24.77
2019-06-26T02:41:47.996Z,24.75
2019-06-26T02:44:15.629Z,24.69
2019-06-26T02:46:43.115Z,24.66
2019-06-26T02:49:10.558Z,24.64
2019-06-26T02:51:38.294Z,24.64
2019-06-26T02:54:05.751Z,24.62
2019-06-26T02:56:33.235Z,24.56
2019-06-26T02:59:00.803Z,24.49
2019-06-26T03:01:28.238Z,24.43
2019-06-26T03:03:55.663Z,24.42
2019-06-26T03:06:23.248Z,24.40
2019-06-26T03:08:50.853Z,24.38
2019-06-26T03:11:18.352Z,24.37
2019-06-26T03:13:45.775Z,24.37
2019-06-26T03:16:14.037Z,24.35
2019-06-26T03:21:15.809Z,24.32
2019-06-26T03:23:43.358Z,24.27
2019-06-26T03:26:10.807Z,24.25
2019-06-26T03:28:38.274Z,24.25
2019-06-26T03:31:05.761Z,24.27
2019-06-26T03:33:33.218Z,24.29
2019-06-26T03:36:00.644Z,24.23
2019-06-26T03:38:28.257Z,24.25
2019-06-26T03:40:55.805Z,24.18
2019-06-26T03:43:23.221Z,24.16
2019-06-26T03:45:50.714Z,24.10
2019-06-26T03:48:18.202Z,24.07
2019-06-26T03:50:45.863Z,24.07
2019-06-26T03:53:13.285Z,24.08
2019-06-26T03:55:40.901Z,24.12
2019-06-26T03:58:08.399Z,24.14
2019-06-26T04:00:38.444Z,24.14
2019-06-26T04:03:05.839Z,24.14
2019-06-26T04:05:33.372Z,24.13
2019-06-26T04:10:27.512Z,24.13
2019-06-26T04:12:54.941Z,24.11
2019-06-26T04:15:22.350Z,24.11
2019-06-26T04:17:49.758Z,24.13
2019-06-26T04:20:17.224Z,24.13
2019-06-26T04:22:47.581Z,24.13
2019-06-26T04:25:12.260Z,24.13
2019-06-26T04:27:39.671Z,24.12
2019-06-26T04:30:07.130Z,24.15
2019-06-26T04:32:34.573Z,24.16
2019-06-26T04:35:02.309Z,24.19
2019-06-26T04:37:29.805Z,24.25
2019-06-26T04:39:57.657Z,24.29
2019-06-26T04:42:25.107Z,24.37
2019-06-26T04:44:52.547Z,24.44
2019-06-26T04:47:20.737Z,24.54
2019-06-26T04:49:48.304Z,24.59
2019-06-26T04:52:15.677Z,24.72
2019-06-26T04:54:43.413Z,24.82
2019-06-26T04:57:10.885Z,24.82
2019-06-26T04:59:38.554Z,24.88
2019-06-26T05:02:05.979Z,24.93
2019-06-26T05:04:34.276Z,25.03
2019-06-26T05:07:02.532Z,25.14
2019-06-26T05:09:30.094Z,25.22
2019-06-26T05:11:57.520Z,25.29
2019-06-26T05:14:24.940Z,25.38
2019-06-26T05:16:52.381Z,25.46
2019-06-26T05:19:20.239Z,25.57
2019-06-26T05:21:47.702Z,25.69
2019-06-26T05:24:15.771Z,25.81
2019-06-26T05:26:43.169Z,25.96
2019-06-26T05:29:10.720Z,26.01
2019-06-26T05:31:38.123Z,26.08
2019-06-26T05:34:05.572Z,26.07
2019-06-26T05:36:32.985Z,26.16
2019-06-26T05:39:00.714Z,26.20
2019-06-26T05:41:28.112Z,26.33
2019-06-26T05:43:55.680Z,26.46
2019-06-26T05:46:31.010Z,26.53
2019-06-26T05:48:50.695Z,26.58
2019-06-26T05:51:18.151Z,26.60
2019-06-26T05:53:45.904Z,26.76
2019-06-26T05:56:14.135Z,26.88
2019-06-26T05:58:41.817Z,26.85
2019-06-26T06:01:09.460Z,26.94
2019-06-26T06:03:36.870Z,27.08
2019-06-26T06:06:04.494Z,27.27
2019-06-26T06:08:32.030Z,27.31
2019-06-26T06:10:59.463Z,27.35
2019-06-26T06:13:27.777Z,27.38
2019-06-26T06:15:55.201Z,27.50
2019-06-26T06:18:22.870Z,27.64
2019-06-26T06:20:50.895Z,27.61
2019-06-26T06:23:18.529Z,27.65
2019-06-26T06:25:45.985Z,27.75
2019-06-26T06:28:13.407Z,27.82
2019-06-26T06:30:40.893Z,27.89
2019-06-26T06:33:08.555Z,27.92
2019-06-26T06:35:36.097Z,27.97
2019-06-26T06:38:03.830Z,28.06
2019-06-26T06:40:31.251Z,28.10
2019-06-26T06:42:58.726Z,28.12
2019-06-26T06:45:27.781Z,28.14
2019-06-26T06:47:55.819Z,28.35
2019-06-26T06:50:23.440Z,28.48
2019-06-26T06:52:51.804Z,28.70
2019-06-26T06:55:19.254Z,28.83
2019-06-26T06:57:46.686Z,28.99
2019-06-26T07:00:14.296Z,29.10
2019-06-26T07:02:41.837Z,29.18
2019-06-26T07:05:09.363Z,29.22
2019-06-26T07:07:36.953Z,29.35
2019-06-26T07:10:05.292Z,29.39
2019-06-26T07:12:33.737Z,29.24
2019-06-26T07:15:01.026Z,29.54
2019-06-26T07:17:28.642Z,29.60
2019-06-26T07:19:56.150Z,29.52
2019-06-26T07:22:23.604Z,29.68
2019-06-26T07:24:51.028Z,29.63
2019-06-26T07:27:18.507Z,29.78
2019-06-26T07:29:45.926Z,29.91
2019-06-26T07:32:13.916Z,30.19
2019-06-26T07:34:41.655Z,30.44
2019-06-26T07:37:09.585Z,30.13
2019-06-26T07:39:37.094Z,30.41
2019-06-26T07:42:04.914Z,30.64
2019-06-26T07:44:32.436Z,31.02
2019-06-26T07:47:00.626Z,31.23
2019-06-26T07:49:28.119Z,31.23
2019-06-26T07:51:55.633Z,31.29
2019-06-26T07:54:23.217Z,31.37
2019-06-26T07:56:50.749Z,31.55
2019-06-26T07:59:18.153Z,31.39
2019-06-26T08:01:46.222Z,31.18
2019-06-26T08:04:13.674Z,31.45
2019-06-26T08:06:42.363Z,31.59
2019-06-26T08:09:09.799Z,31.46
2019-06-26T08:11:37.254Z,31.48
2019-06-26T08:14:04.682Z,31.44
2019-06-26T08:16:34.399Z,31.36
2019-06-26T08:18:59.634Z,31.39
2019-06-26T08:21:28.610Z,31.37
2019-06-26T08:23:56.116Z,31.45
2019-06-26T08:26:23.799Z,31.68
2019-06-26T08:28:51.262Z,31.95
2019-06-26T08:31:19.190Z,31.58
2019-06-26T08:33:46.606Z,31.32
2019-06-26T08:36:14.233Z,31.24
2019-06-26T08:38:41.663Z,31.21
2019-06-26T08:41:09.161Z,31.20
2019-06-26T08:43:36.588Z,31.45
2019-06-26T08:46:04.199Z,31.26
2019-06-26T08:48:39.394Z,31.28
2019-06-26T08:51:01.306Z,31.62
2019-06-26T08:53:28.735Z,31.33
2019-06-26T08:55:56.267Z,31.21
2019-06-26T08:58:23.740Z,31.37
2019-06-26T09:00:51.287Z,31.97
2019-06-26T09:03:18.883Z,31.92
2019-06-26T09:05:48.439Z,31.99
2019-06-26T09:08:14.673Z,31.74
2019-06-26T09:10:44.806Z,31.79
2019-06-26T09:13:09.731Z,31.87
2019-06-26T09:15:37.484Z,31.91
2019-06-26T09:18:04.904Z,32.25
2019-06-26T09:20:36.159Z,32.57
2019-06-26T09:23:03.693Z,32.48
2019-06-26T09:25:32.009Z,32.94
2019-06-26T09:27:59.475Z,33.21
2019-06-26T09:30:27.111Z,33.45
2019-06-26T09:32:54.511Z,33.29
2019-06-26T09:35:21.951Z,33.63
2019-06-26T09:37:49.423Z,33.36
2019-06-26T09:40:16.853Z,33.57
2019-06-26T09:42:44.267Z,33.14
2019-06-26T09:45:11.959Z,32.86
2019-06-26T09:47:39.391Z,32.75
2019-06-26T09:50:06.801Z,32.71
2019-06-26T09:52:34.231Z,32.61
2019-06-26T09:55:02.087Z,32.84
2019-06-26T09:57:29.350Z,33.04
2019-06-26T09:59:57.350Z,33.34
2019-06-26T10:02:24.786Z,33.54
2019-06-26T10:04:52.475Z,33.62
2019-06-26T10:07:19.569Z,34.20
2019-06-26T10:09:46.859Z,34.61
2019-06-26T10:12:13.862Z,34.38
2019-06-26T10:14:47.205Z,33.86
2019-06-26T10:17:08.441Z,33.69
2019-06-26T10:19:36.205Z,33.96
2019-06-26T10:22:03.647Z,33.96
2019-06-26T10:24:31.500Z,33.49
2019-06-26T10:26:58.929Z,33.23
2019-06-26T10:29:26.626Z,33.22
2019-06-26T10:31:54.264Z,33.21
2019-06-26T10:34:21.679Z,33.18
2019-06-26T10:36:49.089Z,33.21
2019-06-26T10:39:16.708Z,33.32
2019-06-26T10:41:44.171Z,33.46
2019-06-26T10:44:11.609Z,33.51
2019-06-26T10:46:39.001Z,33.60
2019-06-26T10:49:06.417Z,33.82
2019-06-26T10:51:33.837Z,34.18
2019-06-26T10:54:01.257Z,34.02
2019-06-26T10:56:28.979Z,33.92
2019-06-26T10:58:56.476Z,34.15
2019-06-26T11:01:24.020Z,34.25
2019-06-26T11:03:52.062Z,34.39
2019-06-26T11:06:19.457Z,34.73
2019-06-26T11:08:47.173Z,34.81
2019-06-26T11:11:14.675Z,34.50
2019-06-26T11:13:42.100Z,34.40
2019-06-26T11:16:09.516Z,34.47
2019-06-26T11:18:37.424Z,34.51
2019-06-26T11:21:04.842Z,34.92
2019-06-26T11:23:32.475Z,35.05
2019-06-26T11:25:59.969Z,35.13
2019-06-26T11:28:27.839Z,35.57
2019-06-26T11:30:55.273Z,35.08
2019-06-26T11:33:22.866Z,34.93
2019-06-26T11:35:50.286Z,34.93
2019-06-26T11:38:18.582Z,34.93
2019-06-26T11:40:46.005Z,34.87
2019-06-26T11:43:13.619Z,35.35
2019-06-26T11:45:41.034Z,35.74
2019-06-26T11:48:08.545Z,35.64
2019-06-26T11:50:36.127Z,35.35
2019-06-26T11:53:03.123Z,35.54
2019-06-26T11:55:30.658Z,35.73
2019-06-26T11:57:58.820Z,35.65
2019-06-26T12:00:26.613Z,35.34
2019-06-26T12:02:54.675Z,35.34
2019-06-26T12:05:22.228Z,35.40
2019-06-26T12:07:49.664Z,35.49
2019-06-26T12:10:17.104Z,35.51
2019-06-26T12:12:44.907Z,35.54
2019-06-26T12:15:12.658Z,35.72
2019-06-26T12:17:40.095Z,36.04
2019-06-26T12:20:18.686Z,36.14
2019-06-26T12:22:36.114Z,35.93
2019-06-26T12:25:03.644Z,36.17
2019-06-26T12:27:31.308Z,36.06
2019-06-26T12:29:59.216Z,36.38
2019-06-26T12:32:26.738Z,36.65
2019-06-26T12:34:54.354Z,36.85
2019-06-26T12:37:36.645Z,37.25
2019-06-26T12:39:49.539Z,37.34
2019-06-26T12:42:17.836Z,37.36
2019-06-26T12:44:45.243Z,36.75
2019-06-26T12:47:12.756Z,36.41
2019-06-26T12:49:40.194Z,36.09
2019-06-26T12:52:07.649Z,35.99
2019-06-26T12:54:35.078Z,35.84
2019-06-26T12:57:03.039Z,35.90
2019-06-26T12:59:30.509Z,36.41
2019-06-26T13:01:58.257Z,36.66
2019-06-26T13:04:25.784Z,36.84
2019-06-26T13:06:53.270Z,37.06
2019-06-26T13:09:21.164Z,36.70
2019-06-26T13:11:49.102Z,36.59
2019-06-26T13:14:16.770Z,36.44
2019-06-26T13:16:45.194Z,36.46
2019-06-26T13:19:12.608Z,36.55
2019-06-26T13:21:40.384Z,36.55
2019-06-26T13:24:08.851Z,36.68
2019-06-26T13:26:36.443Z,36.91
2019-06-26T13:29:03.905Z,36.93
2019-06-26T13:31:31.649Z,36.84
2019-06-26T13:33:59.105Z,36.54
2019-06-26T13:36:26.700Z,36.49
2019-06-26T13:38:54.114Z,36.60
2019-06-26T13:41:22.415Z,36.64
2019-06-26T13:43:49.852Z,36.74
2019-06-26T13:46:17.309Z,36.61
2019-06-26T13:48:44.703Z,36.53
2019-06-26T13:51:12.381Z,36.60
2019-06-26T13:53:39.876Z,36.65
2019-06-26T13:56:07.410Z,36.73
2019-06-26T13:58:35.023Z,36.76
2019-06-26T14:01:02.486Z,36.63
2019-06-26T14:03:30.134Z,36.81
2019-06-26T14:05:57.918Z,36.83
2019-06-26T14:08:25.349Z,36.88
2019-06-26T14:10:52.370Z,36.96
2019-06-26T14:13:19.785Z,36.93
2019-06-26T14:15:47.381Z,36.69
2019-06-26T14:18:31.194Z,36.55
2019-06-26T14:20:58.797Z,36.65
2019-06-26T14:23:25.738Z,36.72
2019-06-26T14:25:53.434Z,36.78
2019-06-26T14:28:20.421Z,36.95
2019-06-26T14:30:48.103Z,37.01
2019-06-26T14:33:15.502Z,36.80
2019-06-26T14:35:42.948Z,36.66
2019-06-26T14:38:10.437Z,36.43
2019-06-26T14:40:37.966Z,36.45
2019-06-26T14:43:05.697Z,36.60
2019-06-26T14:45:33.303Z,36.51
2019-06-26T14:48:01.195Z,36.42
2019-06-26T14:50:28.865Z,36.46
2019-06-26T14:52:56.823Z,36.43
2019-06-26T14:55:24.283Z,36.44
2019-06-26T14:57:51.695Z,36.33
2019-06-26T15:00:19.218Z,36.13
2019-06-26T15:02:46.211Z,36.11
2019-06-26T15:05:13.841Z,36.12
2019-06-26T15:07:41.439Z,36.01
2019-06-26T15:10:09.536Z,35.93
2019-06-26T15:12:37.165Z,35.93
2019-06-26T15:15:04.874Z,35.95
2019-06-26T15:17:32.384Z,35.93
2019-06-26T15:19:59.960Z,35.88
2019-06-26T15:22:27.411Z,36.08
2019-06-26T15:24:55.310Z,36.23
2019-06-26T15:27:22.773Z,36.21
2019-06-26T15:29:50.188Z,36.08
2019-06-26T15:32:17.599Z,35.85
2019-06-26T15:34:45.027Z,35.64
2019-06-26T15:37:12.430Z,35.53
2019-06-26T15:39:39.864Z,35.47
2019-06-26T15:42:07.381Z,35.47
2019-06-26T15:44:35.305Z,35.42
2019-06-26T15:47:02.731Z,35.49
2019-06-26T15:49:30.982Z,35.55
2019-06-26T15:52:14.066Z,35.44
2019-06-26T15:54:26.433Z,35.29
2019-06-26T15:56:53.903Z,35.34
2019-06-26T15:59:21.891Z,35.57
2019-06-26T16:01:49.342Z,35.64
2019-06-26T16:04:17.108Z,35.66
2019-06-26T16:06:44.528Z,35.54
2019-06-26T16:09:12.007Z,35.50
2019-06-26T16:11:39.470Z,35.42
2019-06-26T16:14:06.950Z,35.47
2019-06-26T16:16:34.501Z,35.51
2019-06-26T16:19:20.870Z,35.52
2019-06-26T16:21:48.720Z,35.39
2019-06-26T16:24:16.221Z,35.35
2019-06-26T16:26:44.236Z,35.44
2019-06-26T16:29:11.932Z,35.42
2019-06-26T16:31:39.373Z,35.41
2019-06-26T16:34:06.819Z,35.45
2019-06-26T16:36:34.251Z,35.46
2019-06-26T16:39:01.906Z,35.31
2019-06-26T16:41:29.616Z,35.26
2019-06-26T16:43:57.081Z,35.42
2019-06-26T16:46:24.625Z,35.63
2019-06-26T16:48:52.213Z,35.58
2019-06-26T16:51:19.707Z,35.21
2019-06-26T16:53:47.324Z,35.03
2019-06-26T16:56:14.858Z,34.89
2019-06-26T16:58:42.702Z,34.77
2019-06-26T17:01:10.126Z,34.76
2019-06-26T17:03:38.342Z,34.79
2019-06-26T17:06:05.808Z,34.86
2019-06-26T17:08:33.223Z,34.90
2019-06-26T17:11:00.817Z,34.79
2019-06-26T17:13:28.825Z,34.65
2019-06-26T17:15:56.363Z,34.53
2019-06-26T17:18:23.867Z,34.42
2019-06-26T17:20:51.380Z,34.48
2019-06-26T17:23:18.898Z,34.70
2019-06-26T17:25:46.362Z,34.80
2019-06-26T17:28:13.863Z,34.66
2019-06-26T17:30:41.450Z,34.43
2019-06-26T17:33:08.896Z,34.36
2019-06-26T17:35:36.361Z,34.30
2019-06-26T17:38:03.864Z,34.21
2019-06-26T17:40:31.510Z,34.21
2019-06-26T17:43:11.709Z,34.21
2019-06-26T17:45:26.663Z,34.17
2019-06-26T17:47:54.077Z,34.14
2019-06-26T17:50:21.577Z,34.08
2019-06-26T17:52:49.051Z,34.02
2019-06-26T17:55:16.619Z,33.96
2019-06-26T17:57:47.394Z,34.00
2019-06-26T18:00:12.232Z,34.00
2019-06-26T18:02:39.890Z,33.85
2019-06-26T18:05:07.454Z,33.76
2019-06-26T18:07:34.936Z,33.74
2019-06-26T18:10:02.482Z,33.70
2019-06-26T18:12:30.027Z,33.62
2019-06-26T18:14:58.555Z,33.61
2019-06-26T18:17:27.116Z,33.58
2019-06-26T18:19:54.822Z,33.57
2019-06-26T18:22:22.276Z,33.51
2019-06-26T18:24:49.743Z,33.44
2019-06-26T18:27:17.394Z,33.39
2019-06-26T18:29:45.230Z,33.36
2019-06-26T18:32:12.746Z,33.29
2019-06-26T18:34:40.204Z,33.21
2019-06-26T18:37:07.611Z,33.20
2019-06-26T18:39:35.239Z,33.14
2019-06-26T18:42:02.783Z,33.07
2019-06-26T18:44:30.444Z,33.01
2019-06-26T18:46:58.428Z,33.05
2019-06-26T18:49:26.211Z,33.09
2019-06-26T18:51:53.625Z,33.03
2019-06-26T18:54:21.171Z,32.88
2019-06-26T18:56:49.486Z,32.78
2019-06-26T18:59:17.157Z,32.59
2019-06-26T19:01:44.694Z,32.47
2019-06-26T19:04:12.509Z,32.40
2019-06-26T19:06:40.192Z,32.37
2019-06-26T19:09:07.930Z,32.37
2019-06-26T19:11:35.337Z,32.39
2019-06-26T19:14:02.815Z,32.35
2019-06-26T19:16:30.686Z,32.31
2019-06-26T19:18:58.569Z,32.24
2019-06-26T19:21:26.109Z,32.20
2019-06-26T19:24:08.862Z,32.14
2019-06-26T19:26:21.164Z,32.04
2019-06-26T19:28:48.722Z,31.90
2019-06-26T19:31:16.446Z,31.81
2019-06-26T19:33:45.677Z,31.79
2019-06-26T19:36:11.762Z,31.71
2019-06-26T19:38:39.453Z,31.64
2019-06-26T19:41:08.578Z,31.52
2019-06-26T19:43:34.500Z,31.39
2019-06-26T19:46:02.012Z,31.23
2019-06-26T19:48:29.464Z,31.09
2019-06-26T19:50:56.997Z,30.97
2019-06-26T19:53:25.066Z,30.90
2019-06-26T19:55:52.542Z,30.83
2019-06-26T19:58:21.704Z,30.78
2019-06-26T20:00:48.931Z,30.73
2019-06-26T20:03:16.461Z,30.68
2019-06-26T20:05:43.928Z,30.70
2019-06-26T20:08:11.499Z,30.64
2019-06-26T20:10:38.917Z,30.61
2019-06-26T20:13:07.124Z,30.60
2019-06-26T20:15:34.723Z,30.52
2019-06-26T20:18:04.256Z,30.52
2019-06-26T20:20:30.021Z,30.46
2019-06-26T20:22:57.485Z,30.39
2019-06-26T20:25:24.918Z,30.32
2019-06-26T20:27:56.954Z,30.28
2019-06-26T20:30:20.057Z,30.28
2019-06-26T20:32:47.607Z,30.28
2019-06-26T20:35:15.059Z,30.20
2019-06-26T20:37:42.465Z,30.07
2019-06-26T20:40:09.907Z,29.94
2019-06-26T20:42:37.580Z,29.86
2019-06-26T20:45:05.449Z,29.79
2019-06-26T20:47:32.896Z,29.73
2019-06-26T20:50:00.335Z,29.67
2019-06-26T20:52:27.838Z,29.69
2019-06-26T20:55:01.333Z,29.71
2019-06-26T20:57:23.357Z,29.74
2019-06-26T20:59:50.780Z,29.70
2019-06-26T21:02:18.623Z,29.65
2019-06-26T21:04:47.414Z,29.64
2019-06-26T21:07:14.965Z,29.56
2019-06-26T21:09:42.578Z,29.48
2019-06-26T21:12:10.065Z,29.42
2019-06-26T21:14:37.574Z,29.41
2019-06-26T21:17:05.276Z,29.38
2019-06-26T21:19:33.525Z,29.29
2019-06-26T21:22:02.020Z,29.25
2019-06-26T21:24:29.439Z,29.23
2019-06-26T21:26:57.119Z,29.21
2019-06-26T21:29:24.615Z,29.17
2019-06-26T21:31:52.177Z,29.15
2019-06-26T21:34:19.709Z,29.06
2019-06-26T21:36:47.646Z,29.01
2019-06-26T21:39:15.157Z,28.92
2019-06-26T21:41:43.003Z,28.88
2019-06-26T21:44:10.468Z,28.84
2019-06-26T21:46:37.678Z,28.78
2019-06-26T21:49:04.610Z,28.76
2019-06-26T21:51:32.618Z,28.76
2019-06-26T21:53:59.601Z,28.74
2019-06-26T21:56:27.850Z,28.70
2019-06-26T21:58:54.805Z,28.72
2019-06-26T22:01:21.789Z,28.66
2019-06-26T22:03:48.763Z,28.60
2019-06-26T22:06:15.877Z,28.54
2019-06-26T22:08:42.835Z,28.51
2019-06-26T22:11:09.998Z,28.48
2019-06-26T22:13:36.948Z,28.44
2019-06-26T22:16:04.150Z,28.42
2019-06-26T22:18:31.248Z,28.38
2019-06-26T22:20:58.275Z,28.38
2019-06-26T22:23:25.239Z,28.37
2019-06-26T22:25:52.189Z,28.34
2019-06-26T22:28:19.159Z,28.27
2019-06-26T22:30:46.250Z,28.21
2019-06-26T22:33:13.225Z,28.19
2019-06-26T22:35:40.197Z,28.11
2019-06-26T22:38:07.139Z,28.11
2019-06-26T22:40:34.171Z,28.09
2019-06-26T22:43:01.221Z,28.09
2019-06-26T22:45:28.279Z,28.05
2019-06-26T22:47:55.401Z,28.03
2019-06-26T22:50:22.463Z,28.01
2019-06-26T22:52:49.443Z,28.01
2019-06-26T22:55:16.683Z,27.96
2019-06-26T22:57:43.719Z,27.95
2019-06-26T23:00:10.999Z,27.88
2019-06-26T23:02:38.419Z,27.85
2019-06-26T23:05:05.464Z,27.79
2019-06-26T23:07:32.917Z,27.71
2019-06-26T23:10:00.707Z,27.73
2019-06-26T23:12:28.138Z,27.70
2019-06-26T23:14:55.666Z,27.68
2019-06-26T23:17:23.129Z,27.64
2019-06-26T23:19:50.619Z,27.61
2019-06-26T23:22:18.085Z,27.62
2019-06-26T23:24:45.946Z,27.63
2019-06-26T23:27:13.401Z,27.63
2019-06-26T23:29:40.851Z,27.61
2019-06-26T23:32:08.282Z,27.59
2019-06-26T23:34:35.716Z,27.60
2019-06-26T23:37:03.223Z,27.59
2019-06-26T23:39:30.673Z,27.57
2019-06-26T23:41:58.109Z,27.55
2019-06-26T23:44:25.766Z,27.51
2019-06-26T23:46:53.355Z,27.41
2019-06-26T23:49:21.568Z,27.36
2019-06-26T23:51:48.984Z,27.35
2019-06-26T23:54:16.748Z,27.33
2019-06-26T23:56:44.175Z,27.29
2019-06-26T23:59:12.502Z,27.29
